Time;durP1;ratioP1;P1;durP2;ratioP2;P2;SDS_P1;SDS_P2;PMS_P1;PMS_P2;Temp;Humidity;BMP_temperature;BMP_pressure;BME280_temperature;BME280_humidity;BME280_pressure;Samples;Min_cycle;Max_cycle;Signal;HPM_P1;HPM_P2
2020/12/29 00:00:09;;;;;;;10.97;3.53;;;;;;;8.44;65.30;96726.58;120026;1152;104448;-70
2020/12/29 00:02:57;;;;;;;11.17;3.90;;;;;;;8.46;65.48;96719.31;119917;1153;104451;-71
2020/12/29 00:05:24;;;;;;;7.90;3.55;;;;;;;8.46;65.54;96719.31;119971;1151;104484;-69
2020/12/29 00:07:53;;;;;;;9.15;3.83;;;;;;;8.48;65.42;96716.49;119996;1151;104416;-72
2020/12/29 00:10:24;;;;;;;8.07;3.43;;;;;;;8.47;65.44;96717.48;119970;1151;104396;-71
2020/12/29 00:12:52;;;;;;;12.00;4.10;;;;;;;8.44;65.24;96718.63;119799;1151;104504;-71
2020/12/29 00:15:19;;;;;;;9.40;3.77;;;;;;;8.44;65.20;96713.33;119969;1151;104927;-70
2020/12/29 00:17:45;;;;;;;8.97;3.90;;;;;;;8.45;65.14;96719.45;119984;1151;104426;-70
2020/12/29 00:20:12;;;;;;;8.20;3.90;;;;;;;8.44;65.17;96712.48;119928;1151;104519;-70
2020/12/29 00:22:40;;;;;;;8.03;3.90;;;;;;;8.43;65.11;96706.38;119936;1151;104429;-70
2020/12/29 00:25:07;;;;;;;7.13;3.60;;;;;;;8.42;65.13;96699.41;119998;1151;104362;-68
2020/12/29 00:27:34;;;;;;;8.13;3.62;;;;;;;8.44;65.01;96704.54;120100;1151;104457;-71
2020/12/29 00:30:01;;;;;;;7.43;3.70;;;;;;;8.45;65.01;96703.55;120007;1153;104463;-70
2020/12/29 00:32:28;;;;;;;11.27;4.23;;;;;;;8.44;65.05;96708.03;119988;1153;104854;-70
2020/12/29 00:34:55;;;;;;;9.90;4.07;;;;;;;8.44;64.97;96697.44;120034;1153;104517;-70
2020/12/29 00:37:22;;;;;;;5.90;3.20;;;;;;;8.46;64.71;96702.56;119983;1153;104407;-69
2020/12/29 00:39:49;;;;;;;7.28;3.62;;;;;;;8.44;65.01;96693.95;120024;1152;104396;-70
2020/12/29 00:42:17;;;;;;;9.83;4.90;;;;;;;8.42;64.68;96691.47;119989;1151;104375;-71
2020/12/29 00:44:44;;;;;;;13.70;4.45;;;;;;;8.43;64.96;96674.59;120071;1152;104352;-71
2020/12/29 00:47:11;;;;;;;5.55;3.05;;;;;;;8.43;64.65;96701.08;119981;1151;104423;-71
2020/12/29 00:49:39;;;;;;;8.97;3.30;;;;;;;8.41;64.59;96681.86;120054;1151;104432;-70
2020/12/29 00:52:06;;;;;;;8.97;3.73;;;;;;;8.40;64.81;96676.70;119952;1154;104420;-71
2020/12/29 00:54:33;;;;;;;8.38;3.65;;;;;;;8.39;64.44;96667.94;120041;1153;104455;-71
2020/12/29 00:57:00;;;;;;;10.07;4.10;;;;;;;8.40;64.67;96660.80;120033;1151;104451;-70
2020/12/29 00:59:27;;;;;;;8.60;3.95;;;;;;;8.41;64.79;96659.81;120023;1153;104455;-71
2020/12/29 01:01:56;;;;;;;8.23;3.85;;;;;;;8.43;64.45;96660.49;119941;1151;104375;-71
2020/12/29 01:04:26;;;;;;;10.40;4.27;;;;;;;8.42;64.55;96651.73;120005;1153;104361;-70
2020/12/29 01:06:54;;;;;;;9.83;3.60;;;;;;;8.44;64.46;96649.75;120087;1153;104460;-71
2020/12/29 01:09:21;;;;;;;8.23;3.67;;;;;;;8.43;64.18;96642.80;120054;1152;104537;-68
2020/12/29 01:11:51;;;;;;;8.10;3.73;;;;;;;8.43;64.64;96640.15;119963;1153;104474;-69
2020/12/29 01:14:18;;;;;;;8.60;4.20;;;;;;;8.44;64.61;96633.02;119892;1152;104363;-69
2020/12/29 01:16:46;;;;;;;12.20;4.72;;;;;;;8.43;64.48;96624.25;119886;1152;104426;-69
2020/12/29 01:19:14;;;;;;;8.90;3.80;;;;;;;8.43;64.58;96624.25;119934;1151;104358;-67
2020/12/29 01:21:41;;;;;;;9.87;3.63;;;;;;;8.42;64.11;96627.04;119975;1151;104550;-69
2020/12/29 01:24:08;;;;;;;8.60;4.15;;;;;;;8.38;64.67;96615.95;120038;1151;104442;-69
2020/12/29 01:26:35;;;;;;;12.60;4.30;;;;;;;8.37;64.46;96610.79;119984;1151;104383;-69
2020/12/29 01:29:02;;;;;;;8.73;3.90;;;;;;;8.37;64.38;96611.64;119864;1151;104407;-70
2020/12/29 01:31:30;;;;;;;10.17;3.80;;;;;;;8.36;64.19;96604.67;119923;1151;104471;-69
2020/12/29 01:33:59;;;;;;;10.63;4.20;;;;;;;8.35;64.52;96597.72;121561;1151;104155;-67
2020/12/29 01:36:28;;;;;;;8.83;3.80;;;;;;;8.35;64.24;96603.02;119848;1151;104426;-69
2020/12/29 01:38:55;;;;;;;10.67;4.07;;;;;;;8.32;64.15;96600.68;119955;1153;104367;-70
2020/12/29 01:41:23;;;;;;;7.90;3.87;;;;;;;8.30;64.22;96598.20;119851;1154;104475;-68
2020/12/29 01:43:52;;;;;;;10.00;3.30;;;;;;;8.30;64.11;96592.06;119895;1153;104381;-71
2020/12/29 01:46:19;;;;;;;9.63;4.03;;;;;;;8.29;63.85;96585.95;121698;1151;104505;-68
2020/12/29 01:48:46;;;;;;;8.23;3.50;;;;;;;8.29;64.16;96595.70;119988;1153;104963;-69
2020/12/29 01:51:13;;;;;;;13.60;4.13;;;;;;;8.29;64.03;96593.05;120016;1153;104387;-70
2020/12/29 01:53:41;;;;;;;9.70;4.05;;;;;;;8.28;64.15;96591.39;120077;1153;104375;-69
2020/12/29 01:56:10;;;;;;;9.07;3.87;;;;;;;8.28;64.14;96594.88;121384;1150;101961;-69
2020/12/29 01:58:42;;;;;;;11.78;3.90;;;;;;;8.28;64.20;96596.69;120077;1151;104567;-69
2020/12/29 02:01:09;;;;;;;8.83;3.83;;;;;;;8.30;64.26;96594.71;120021;1151;104458;-69
2020/12/29 02:03:37;;;;;;;8.60;3.50;;;;;;;8.31;63.78;96604.31;119948;1151;104446;-71
2020/12/29 02:06:04;;;;;;;9.93;4.13;;;;;;;8.31;63.94;96599.87;119944;1151;104391;-68
2020/12/29 02:08:32;;;;;;;7.23;3.37;;;;;;;8.32;63.92;96592.73;119925;1153;104482;-68
2020/12/29 02:11:01;;;;;;;5.90;3.40;;;;;;;8.35;63.97;96590.59;119979;1151;104503;-69
2020/12/29 02:13:28;;;;;;;7.43;3.40;;;;;;;8.41;63.49;96606.84;120186;1152;104478;-70
2020/12/29 02:15:55;;;;;;;8.23;3.20;;;;;;;8.46;63.58;96600.09;119893;1151;104420;-70
2020/12/29 02:18:22;;;;;;;5.23;3.10;;;;;;;8.57;62.90;96624.66;119958;1153;104365;-68
2020/12/29 02:20:49;;;;;;;7.47;3.77;;;;;;;8.63;62.72;96616.07;119888;1153;104368;-69
2020/12/29 02:23:16;;;;;;;6.40;3.13;;;;;;;8.60;62.78;96609.28;119972;1153;104430;-70
2020/12/29 02:25:43;;;;;;;6.95;3.12;;;;;;;8.54;62.78;96619.70;120075;1153;104362;-69
2020/12/29 02:28:10;;;;;;;7.93;3.60;;;;;;;8.45;63.28;96613.48;120122;1153;104467;-71
2020/12/29 02:30:37;;;;;;;7.33;3.57;;;;;;;8.39;62.90;96616.76;120197;1153;104961;-70
2020/12/29 02:33:04;;;;;;;7.83;3.70;;;;;;;8.32;62.89;96598.88;120099;1154;104358;-70
2020/12/29 02:35:31;;;;;;;7.37;3.40;;;;;;;8.27;62.45;96589.73;119965;1153;104438;-69
2020/12/29 02:37:58;;;;;;;10.40;3.70;;;;;;;8.16;62.78;96578.41;120070;1153;104460;-65
2020/12/29 02:40:25;;;;;;;7.97;3.90;;;;;;;8.13;63.02;96576.11;119928;1153;104455;-71
2020/12/29 02:42:52;;;;;;;8.67;3.80;;;;;;;8.10;63.10;96576.42;120047;1153;104426;-68
2020/12/29 02:45:19;;;;;;;8.60;3.80;;;;;;;8.10;63.14;96571.13;119903;1153;104410;-72
2020/12/29 02:47:46;;;;;;;7.33;3.87;;;;;;;8.10;63.06;96565.83;119982;1153;104360;-68
2020/12/29 02:50:13;;;;;;;7.93;3.43;;;;;;;8.11;63.35;96558.70;119950;1153;104764;-66
2020/12/29 02:52:40;;;;;;;8.27;3.70;;;;;;;8.09;63.39;96564.17;119937;1153;104383;-69
2020/12/29 02:55:07;;;;;;;8.83;3.70;;;;;;;8.06;63.21;96567.12;119916;1154;104490;-67
2020/12/29 02:57:35;;;;;;;7.35;3.35;;;;;;;8.05;63.17;96566.28;119916;1153;104486;-67
2020/12/29 03:00:05;;;;;;;8.00;3.73;;;;;;;8.05;63.32;96571.58;119916;1152;104485;-69
2020/12/29 03:02:32;;;;;;;9.47;3.53;;;;;;;8.06;63.17;96559.19;119915;1153;104463;-70
2020/12/29 03:05:01;;;;;;;10.17;3.60;;;;;;;8.10;63.30;96559.69;119953;1153;104455;-69
2020/12/29 03:07:28;;;;;;;6.77;2.97;;;;;;;8.10;62.93;96554.39;119986;1153;104340;-69
2020/12/29 03:09:55;;;;;;;7.93;3.30;;;;;;;8.10;63.17;96552.59;120048;1153;104442;-69
2020/12/29 03:12:23;;;;;;;11.07;3.70;;;;;;;8.10;62.94;96549.95;120001;1153;104387;-69
2020/12/29 03:14:50;;;;;;;7.37;3.10;;;;;;;8.11;63.50;96545.47;119913;1153;104460;-70
2020/12/29 03:17:17;;;;;;;10.37;3.90;;;;;;;8.09;63.14;96545.64;119912;1154;104423;-70
2020/12/29 03:19:44;;;;;;;9.70;3.67;;;;;;;8.09;63.04;96548.28;119914;1151;104359;-69
2020/12/29 03:22:11;;;;;;;7.65;3.47;;;;;;;8.12;63.22;96542.67;119965;1151;104450;-69
2020/12/29 03:24:38;;;;;;;9.70;3.60;;;;;;;8.12;63.19;96547.13;119967;1151;105872;-70
2020/12/29 03:27:05;;;;;;;6.65;2.90;;;;;;;8.10;63.49;96544.65;119894;1153;104357;-68
2020/12/29 03:29:32;;;;;;;7.90;3.17;;;;;;;8.05;62.99;96547.75;119908;1153;104530;-68
2020/12/29 03:31:58;;;;;;;9.33;3.53;;;;;;;8.01;62.98;96543.76;119866;1153;104356;-69
2020/12/29 03:34:27;;;;;;;10.60;3.37;;;;;;;8.01;63.26;96542.95;120016;1153;104426;-70
2020/12/29 03:36:54;;;;;;;7.60;3.43;;;;;;;8.02;62.96;96528.72;119927;1153;104882;-69
2020/12/29 03:39:22;;;;;;;11.13;3.80;;;;;;;8.05;63.07;96529.22;119946;1153;104576;-70
2020/12/29 03:41:49;;;;;;;7.03;3.33;;;;;;;8.02;63.26;96518.95;119919;1153;104540;-70
2020/12/29 03:44:16;;;;;;;9.27;3.63;;;;;;;8.02;63.74;96516.30;119942;1153;104435;-70
2020/12/29 03:46:43;;;;;;;6.53;3.97;;;;;;;8.07;63.57;96505.25;120045;1151;104422;-70
2020/12/29 03:49:09;;;;;;;7.30;3.57;;;;;;;8.11;63.53;96496.00;119885;1154;104367;-68
2020/12/29 03:51:36;;;;;;;6.70;3.20;;;;;;;8.16;63.56;96491.03;119916;1151;104492;-70
2020/12/29 03:54:03;;;;;;;5.93;3.40;;;;;;;8.21;63.69;96493.22;119995;1152;104355;-70
2020/12/29 03:56:30;;;;;;;8.65;3.70;;;;;;;8.24;64.01;96494.70;119946;1153;104356;-71
2020/12/29 03:58:57;;;;;;;6.23;3.23;;;;;;;8.25;63.54;96488.42;119844;1152;104393;-67
2020/12/29 04:01:24;;;;;;;6.70;3.20;;;;;;;8.28;63.84;96482.80;120312;1153;104346;-70
2020/12/29 04:03:51;;;;;;;8.73;3.60;;;;;;;8.29;63.80;96479.17;119901;1151;104513;-68
2020/12/29 04:06:18;;;;;;;7.35;3.50;;;;;;;8.29;63.57;96485.31;120015;1153;104378;-71
2020/12/29 04:08:46;;;;;;;5.72;2.98;;;;;;;8.27;63.94;96478.50;120083;1153;104830;-69
2020/12/29 04:11:13;;;;;;;9.00;3.70;;;;;;;8.16;63.72;96485.73;120084;1153;104471;-68
2020/12/29 04:13:52;;;;;;;6.43;3.40;;;;;;;8.02;63.62;96478.42;120065;1153;104432;-69
2020/12/29 04:16:21;;;;;;;7.33;3.60;;;;;;;7.89;63.53;96473.58;120061;1151;104492;-70
2020/12/29 04:18:50;;;;;;;5.63;3.40;;;;;;;7.77;63.93;96469.54;119973;1153;104423;-69
2020/12/29 04:21:18;;;;;;;7.53;3.30;;;;;;;7.66;63.55;96460.88;119894;1153;104446;-70
2020/12/29 04:23:45;;;;;;;6.13;3.00;;;;;;;7.56;63.44;96463.65;119913;1153;104495;-70
2020/12/29 04:26:14;;;;;;;8.90;3.40;;;;;;;7.46;63.55;96449.70;119958;1153;104515;-70
2020/12/29 04:28:41;;;;;;;11.27;4.07;;;;;;;7.43;64.04;96442.07;119888;1153;104390;-69
2020/12/29 04:31:12;;;;;;;15.17;5.57;;;;;;;7.38;63.73;96434.63;119957;1153;104450;-71
2020/12/29 04:33:41;;;;;;;13.50;5.00;;;;;;;7.37;64.39;96418.89;119872;1154;104569;-70
2020/12/29 04:36:08;;;;;;;17.10;5.17;;;;;;;7.36;63.97;96407.50;120001;1152;104364;-71
2020/12/29 04:38:37;;;;;;;14.17;5.70;;;;;;;7.37;63.85;96414.45;119977;1154;104505;-70
2020/12/29 04:41:04;;;;;;;16.97;5.30;;;;;;;7.37;64.64;96408.31;119907;1153;104532;-70
2020/12/29 04:43:33;;;;;;;12.63;4.87;;;;;;;7.40;64.41;96403.56;119965;1153;104865;-70
2020/12/29 04:46:03;;;;;;;11.23;4.07;;;;;;;7.43;64.31;96392.67;119956;1153;104461;-70
2020/12/29 04:48:31;;;;;;;9.57;3.93;;;;;;;7.48;64.43;96389.53;120112;1153;104362;-73
2020/12/29 04:51:08;;;;;;;16.95;4.40;;;;;;;7.47;64.81;96376.48;120006;1152;104383;-72
2020/12/29 04:53:37;;;;;;;13.57;4.73;;;;;;;7.48;64.75;96376.31;120035;1154;104463;-71
2020/12/29 04:56:09;;;;;;;8.47;3.47;;;;;;;7.48;64.80;96365.73;120975;1152;104361;-69
2020/12/29 04:58:38;;;;;;;6.83;3.13;;;;;;;7.41;64.03;96349.68;120072;1153;104429;-70
2020/12/29 05:01:09;;;;;;;4.47;2.53;;;;;;;7.36;64.85;96335.26;120035;1153;104431;-69
2020/12/29 05:03:45;;;;;;;7.40;2.90;;;;;;;7.25;64.36;96344.30;120083;1153;104628;-69
2020/12/29 05:06:13;;;;;;;9.77;3.40;;;;;;;7.12;64.71;96335.02;119936;1151;104393;-71
2020/12/29 05:08:48;;;;;;;10.80;3.20;;;;;;;7.05;64.24;96331.33;120125;1151;104426;-72
2020/12/29 05:11:17;;;;;;;6.60;2.60;;;;;;;7.02;64.48;96326.36;120089;1151;104458;-70
2020/12/29 05:13:46;;;;;;;3.97;2.83;;;;;;;6.99;64.44;96326.67;119925;1151;104433;-70
2020/12/29 05:16:14;;;;;;;8.60;2.73;;;;;;;6.96;64.53;96321.70;120027;1151;104504;-70
2020/12/29 05:18:41;;;;;;;4.40;2.60;;;;;;;6.93;65.24;96322.00;119730;1153;104458;-70
2020/12/29 05:21:10;;;;;;;4.00;2.30;;;;;;;6.88;65.25;96314.56;119867;1152;104351;-69
2020/12/29 05:23:37;;;;;;;5.27;2.30;;;;;;;6.88;65.29;96311.92;119816;1152;105424;-69
2020/12/29 05:26:04;;;;;;;4.40;2.50;;;;;;;6.85;65.62;96307.76;119810;1151;104373;-69
2020/12/29 05:28:33;;;;;;;5.03;2.70;;;;;;;6.83;65.99;96312.36;119805;1153;104387;-68
2020/12/29 05:31:03;;;;;;;3.77;2.20;;;;;;;6.81;66.29;96302.95;119837;1153;104385;-69
2020/12/29 05:33:30;;;;;;;4.43;2.10;;;;;;;6.80;66.18;96309.22;119971;1153;104387;-70
2020/12/29 05:36:01;;;;;;;5.93;2.40;;;;;;;6.78;66.55;96311.19;119891;1153;104409;-70
2020/12/29 05:38:29;;;;;;;3.97;2.40;;;;;;;6.75;66.34;96306.21;120085;1153;104354;-70
2020/12/29 05:40:55;;;;;;;6.27;2.17;;;;;;;6.74;66.77;96312.48;120135;1152;104426;-69
2020/12/29 05:43:31;;;;;;;6.75;2.55;;;;;;;6.73;67.24;96302.89;119942;1153;104385;-69
2020/12/29 05:46:01;;;;;;;7.93;3.10;;;;;;;6.69;67.32;96305.03;119988;1153;104509;-70
2020/12/29 05:48:28;;;;;;;6.50;2.63;;;;;;;6.69;68.09;96303.20;120702;1152;104860;-70
2020/12/29 05:50:55;;;;;;;5.73;2.50;;;;;;;6.67;68.58;96289.32;119851;1151;104417;-69
2020/12/29 05:53:22;;;;;;;5.95;2.70;;;;;;;6.66;67.36;96289.49;119816;1153;104492;-68
2020/12/29 05:55:50;;;;;;;3.60;2.13;;;;;;;6.65;68.24;96279.91;119747;1151;104465;-70
2020/12/29 05:58:18;;;;;;;5.07;2.07;;;;;;;6.62;68.73;96281.03;119642;1151;104417;-69
2020/12/29 06:00:47;;;;;;;2.40;1.77;;;;;;;6.60;68.10;96287.47;121924;1151;102095;-70
2020/12/29 06:03:15;;;;;;;3.43;1.93;;;;;;;6.60;68.20;96298.03;121939;1151;103188;-70
2020/12/29 06:05:48;;;;;;;3.33;1.70;;;;;;;6.58;68.72;96292.89;120352;1152;104503;-69
2020/12/29 06:08:17;;;;;;;2.43;1.80;;;;;;;6.59;68.92;96320.95;120036;1151;104447;-69
2020/12/29 06:10:59;;;;;;;2.13;1.53;;;;;;;6.60;68.88;96313.88;120042;1151;104450;-69
2020/12/29 06:13:29;;;;;;;3.67;1.47;;;;;;;6.57;68.83;96322.92;120013;1153;104386;-70
2020/12/29 06:15:58;;;;;;;1.70;1.33;;;;;;;6.58;68.99;96331.69;120013;1151;104366;-70
2020/12/29 06:18:36;;;;;;;3.73;1.63;;;;;;;6.57;68.77;96335.31;119985;1151;104529;-70
2020/12/29 06:21:07;;;;;;;2.00;1.33;;;;;;;6.57;69.22;96335.31;120028;1151;104422;-70
2020/12/29 06:23:49;;;;;;;3.67;1.90;;;;;;;6.60;69.96;96348.22;120047;1151;104351;-69
2020/12/29 06:26:19;;;;;;;1.10;0.97;;;;;;;6.59;68.73;96346.55;120046;1151;104446;-69
2020/12/29 06:28:49;;;;;;;1.60;1.10;;;;;;;6.60;69.83;96353.50;119962;1151;104438;-69
2020/12/29 06:31:27;;;;;;;1.60;1.00;;;;;;;6.59;69.13;96344.73;119985;1153;104653;-68
2020/12/29 06:33:57;;;;;;;2.90;1.30;;;;;;;6.59;69.11;96349.20;120018;1151;104380;-68
2020/12/29 06:36:29;;;;;;;5.10;2.07;;;;;;;6.59;69.26;96341.27;120048;1151;104455;-70
2020/12/29 06:39:03;;;;;;;3.43;1.60;;;;;;;6.57;69.32;96349.33;119990;1151;104487;-72
2020/12/29 06:41:34;;;;;;;3.57;1.47;;;;;;;6.60;70.14;96350.86;120048;1151;104353;-70
2020/12/29 06:44:03;;;;;;;2.30;1.47;;;;;;;6.63;69.60;96358.47;120061;1151;104423;-70
2020/12/29 06:46:31;;;;;;;3.50;1.43;;;;;;;6.63;69.32;96369.85;120007;1151;104451;-71
2020/12/29 06:49:21;;;;;;;1.77;1.27;;;;;;;6.66;70.06;96392.51;120059;1151;104449;-72
2020/12/29 06:52:32;;;;;;;2.20;1.25;;;;;;;6.70;69.99;96383.30;119939;1151;104428;-69
2020/12/29 06:55:01;;;;;;;2.40;1.20;;;;;;;6.74;70.27;96367.95;119952;1151;104452;-70
2020/12/29 06:57:34;;;;;;;5.07;1.90;;;;;;;6.78;69.53;96361.38;120100;1151;105974;-69
2020/12/29 07:00:10;;;;;;;3.58;1.82;;;;;;;6.82;70.04;96376.77;119962;1151;104452;-67
2020/12/29 07:02:40;;;;;;;5.43;2.00;;;;;;;6.88;69.86;96364.77;119993;1151;104448;-73
2020/12/29 07:05:22;;;;;;;5.50;2.50;;;;;;;6.93;69.65;96375.67;120071;1151;104446;-69
2020/12/29 07:07:55;;;;;;;3.13;1.63;;;;;;;6.96;69.57;96367.44;120012;1151;104917;-69
2020/12/29 07:10:27;;;;;;;3.83;1.75;;;;;;;6.99;70.11;96358.38;119984;1151;104453;-69
2020/12/29 07:12:54;;;;;;;3.40;1.77;;;;;;;7.04;69.52;96384.33;119992;1151;104353;-69
2020/12/29 07:15:24;;;;;;;4.27;1.90;;;;;;;7.08;70.11;96404.19;119982;1151;104358;-69
2020/12/29 07:17:56;;;;;;;4.63;2.30;;;;;;;7.11;69.58;96425.02;120004;1151;104460;-70
2020/12/29 07:20:27;;;;;;;7.07;2.43;;;;;;;7.15;69.71;96419.27;120008;1151;105020;-70
2020/12/29 07:23:06;;;;;;;6.07;2.30;;;;;;;7.22;69.60;96400.98;120042;1152;104453;-70
2020/12/29 07:25:36;;;;;;;4.03;2.40;;;;;;;7.28;70.02;96415.38;119987;1151;104353;-70
2020/12/29 07:28:06;;;;;;;3.30;2.27;;;;;;;7.33;69.89;96417.58;120026;1153;104492;-70
2020/12/29 07:30:35;;;;;;;8.20;2.43;;;;;;;7.34;69.57;96443.00;119971;1151;104506;-67
2020/12/29 07:33:04;;;;;;;6.30;2.50;;;;;;;7.37;70.18;96453.27;120022;1151;104354;-71
2020/12/29 07:35:34;;;;;;;6.65;2.60;;;;;;;7.38;70.18;96454.93;119974;1151;104498;-70
2020/12/29 07:38:14;;;;;;;5.63;2.37;;;;;;;7.40;69.40;96463.54;119976;1151;104383;-71
2020/12/29 07:40:42;;;;;;;7.03;2.87;;;;;;;7.39;69.49;96460.08;119991;1151;104426;-72
2020/12/29 07:43:09;;;;;;;5.37;2.53;;;;;;;7.39;69.26;96459.23;120024;1151;104754;-74
2020/12/29 07:45:37;;;;;;;4.60;2.15;;;;;;;7.39;69.98;96452.14;119967;1151;104408;-73
2020/12/29 07:48:06;;;;;;;6.63;2.67;;;;;;;7.39;69.25;96454.80;120030;1151;104375;-68
2020/12/29 07:50:35;;;;;;;3.70;2.25;;;;;;;7.41;69.90;96468.69;119972;1151;104455;-69
2020/12/29 07:53:05;;;;;;;5.73;2.63;;;;;;;7.41;69.44;96460.75;119953;1151;104356;-68
2020/12/29 07:55:33;;;;;;;5.87;2.70;;;;;;;7.41;69.30;96476.62;119968;1151;104451;-70
2020/12/29 07:58:06;;;;;;;7.47;2.43;;;;;;;7.44;69.63;96492.19;120017;1151;104391;-70
2020/12/29 08:00:37;;;;;;;7.50;2.45;;;;;;;7.48;68.72;96521.78;119949;1151;104821;-73
2020/12/29 08:03:05;;;;;;;5.55;2.30;;;;;;;7.56;69.21;96502.48;119894;1151;104453;-73
2020/12/29 08:05:35;;;;;;;3.93;2.20;;;;;;;7.62;69.18;96514.28;119961;1151;104445;-69
2020/12/29 08:08:04;;;;;;;6.70;2.40;;;;;;;7.68;68.07;96511.02;120019;1151;104356;-72
2020/12/29 08:10:34;;;;;;;5.87;2.40;;;;;;;7.68;68.29;96519.77;119864;1151;104464;-71
2020/12/29 08:13:07;;;;;;;5.10;2.17;;;;;;;7.71;68.59;96521.28;119830;1151;104468;-70
2020/12/29 08:15:43;;;;;;;7.95;2.90;;;;;;;7.74;68.93;96526.27;120008;1151;104357;-71
2020/12/29 08:18:17;;;;;;;5.17;2.23;;;;;;;7.79;68.25;96523.95;119900;1151;104522;-70
2020/12/29 08:20:57;;;;;;;4.10;1.87;;;;;;;7.79;67.83;96549.60;119941;1151;104352;-70
2020/12/29 08:23:27;;;;;;;6.57;2.60;;;;;;;7.75;67.76;96557.84;119879;1153;104420;-69
2020/12/29 08:25:55;;;;;;;4.27;2.13;;;;;;;7.72;67.61;96574.03;119892;1151;104426;-68
2020/12/29 08:28:26;;;;;;;4.47;1.93;;;;;;;7.68;67.66;96585.91;119864;1152;104385;-70
2020/12/29 08:30:55;;;;;;;9.30;3.07;;;;;;;7.65;67.49;96591.51;119917;1151;104377;-70
2020/12/29 08:33:23;;;;;;;4.57;2.07;;;;;;;7.61;67.68;96616.61;120059;1151;104384;-68
2020/12/29 08:35:53;;;;;;;3.03;1.87;;;;;;;7.57;67.48;96633.77;119983;1151;104541;-68
2020/12/29 08:38:26;;;;;;;5.93;1.80;;;;;;;7.55;67.63;96633.94;119985;1151;104518;-66
2020/12/29 08:41:05;;;;;;;6.50;2.60;;;;;;;7.57;67.19;96624.03;119966;1153;104388;-69
2020/12/29 08:43:51;;;;;;;5.55;2.15;;;;;;;7.59;66.89;96656.45;120087;1151;104883;-67
2020/12/29 08:46:21;;;;;;;7.87;2.33;;;;;;;7.63;67.38;96664.91;120065;1152;104487;-72
2020/12/29 08:49:05;;;;;;;4.10;2.13;;;;;;;7.68;66.71;96659.18;120059;1153;104453;-69
2020/12/29 08:51:38;;;;;;;5.03;1.87;;;;;;;7.75;67.03;96689.31;119929;1151;104548;-71
2020/12/29 08:54:18;;;;;;;6.33;2.30;;;;;;;7.89;67.26;96680.84;119990;1151;104380;-71
2020/12/29 08:56:47;;;;;;;6.00;2.70;;;;;;;8.02;67.16;96701.61;119994;1151;104380;-70
2020/12/29 08:59:16;;;;;;;6.27;2.50;;;;;;;8.06;66.78;96680.98;120223;1151;104358;-69
2020/12/29 09:01:45;;;;;;;5.13;2.23;;;;;;;8.07;66.59;96713.56;120007;1151;104389;-69
2020/12/29 09:04:34;;;;;;;4.10;2.27;;;;;;;8.06;66.76;96707.45;119878;1151;104447;-70
2020/12/29 09:07:05;;;;;;;3.47;1.73;;;;;;;8.07;67.20;96713.56;119948;1151;104370;-71
2020/12/29 09:09:36;;;;;;;4.67;1.77;;;;;;;8.08;66.79;96734.61;120004;1153;104451;-70
2020/12/29 09:12:11;;;;;;;2.90;1.70;;;;;;;8.07;66.62;96740.89;119823;1151;104827;-69
2020/12/29 09:14:50;;;;;;;9.00;2.60;;;;;;;8.07;66.42;96748.83;120112;1151;104456;-69
2020/12/29 09:17:20;;;;;;;5.07;2.57;;;;;;;8.12;66.62;96761.59;120025;1151;104517;-70
2020/12/29 09:20:21;;;;;;;6.33;2.40;;;;;;;8.21;66.84;96760.69;119842;1153;104390;-70
2020/12/29 09:22:51;;;;;;;8.67;2.80;;;;;;;8.35;67.04;96776.00;119905;1151;104426;-71
2020/12/29 09:25:33;;;;;;;5.93;2.60;;;;;;;8.39;66.64;96779.19;119865;1151;104446;-71
2020/12/29 09:28:12;;;;;;;9.40;2.20;;;;;;;8.54;66.42;96771.55;119902;1151;104436;-72
2020/12/29 09:30:46;;;;;;;4.13;2.00;;;;;;;8.75;66.40;96786.27;120016;1152;105050;-71
2020/12/29 09:33:21;;;;;;;3.70;1.90;;;;;;;9.00;66.44;96797.00;119887;1151;104409;-72
2020/12/29 09:35:50;;;;;;;7.20;2.17;;;;;;;9.21;66.38;96813.33;119934;1152;104446;-71
2020/12/29 09:38:19;;;;;;;4.23;2.07;;;;;;;9.34;65.94;96815.58;119862;1151;104419;-70
2020/12/29 09:41:00;;;;;;;6.93;2.23;;;;;;;9.39;65.67;96828.34;120417;1151;104423;-69
2020/12/29 09:43:27;;;;;;;7.70;2.30;;;;;;;9.43;66.12;96845.62;120075;1151;104534;-67
2020/12/29 09:45:57;;;;;;;6.83;2.17;;;;;;;9.51;65.93;96850.96;119826;1151;104375;-71
2020/12/29 09:48:26;;;;;;;8.43;2.23;;;;;;;9.59;66.07;96859.92;119899;1151;104451;-70
2020/12/29 09:50:53;;;;;;;4.50;2.20;;;;;;;9.62;65.71;96855.14;120025;1151;104474;-71
2020/12/29 09:53:21;;;;;;;8.83;2.17;;;;;;;9.71;65.79;96887.04;120273;1151;104342;-68
2020/12/29 09:55:48;;;;;;;4.10;2.05;;;;;;;9.74;65.36;96873.45;119895;1151;104419;-72
2020/12/29 09:58:15;;;;;;;3.77;1.50;;;;;;;9.75;65.00;96905.13;119837;1151;104454;-72
2020/12/29 10:00:42;;;;;;;1.47;1.23;;;;;;;9.78;65.07;96902.16;119839;1151;104424;-69
2020/12/29 10:03:09;;;;;;;6.40;1.90;;;;;;;9.82;65.52;96907.97;120241;1151;104374;-71
2020/12/29 10:05:36;;;;;;;6.10;1.90;;;;;;;9.84;65.17;96921.91;119784;1151;104528;-72
2020/12/29 10:08:03;;;;;;;2.43;1.53;;;;;;;9.92;65.21;96931.76;119832;1151;104446;-72
2020/12/29 10:10:31;;;;;;;5.00;1.70;;;;;;;10.04;64.96;96938.42;119822;1151;104455;-72
2020/12/29 10:12:58;;;;;;;10.80;2.20;;;;;;;10.10;63.09;96945.75;119804;1151;104352;-72
2020/12/29 10:15:25;;;;;;;4.50;1.90;;;;;;;10.02;64.12;96945.72;119904;1151;104451;-71
2020/12/29 10:17:52;;;;;;;3.90;1.40;;;;;;;10.00;64.35;96966.29;119819;1153;104588;-72
2020/12/29 10:20:19;;;;;;;2.73;1.50;;;;;;;10.05;64.64;96957.86;119766;1151;104374;-69
2020/12/29 10:22:47;;;;;;;7.10;2.07;;;;;;;10.07;64.07;96985.09;119761;1151;104496;-72
2020/12/29 10:25:14;;;;;;;5.73;1.93;;;;;;;10.02;64.13;96984.74;120596;1151;104348;-67
2020/12/29 10:27:46;;;;;;;4.03;2.00;;;;;;;10.11;64.29;96989.92;119823;1151;104348;-73
2020/12/29 10:30:13;;;;;;;3.70;1.63;;;;;;;10.22;64.18;96995.94;119752;1151;104525;-72
2020/12/29 10:32:41;;;;;;;3.63;1.77;;;;;;;10.20;64.24;96992.61;119659;1151;104458;-73
2020/12/29 10:35:08;;;;;;;4.87;2.30;;;;;;;10.24;64.10;96993.95;119738;1151;104355;-76
2020/12/29 10:37:35;;;;;;;6.13;2.97;;;;;;;10.25;63.85;96999.09;119866;1151;106657;-74
2020/12/29 10:40:03;;;;;;;5.12;2.02;;;;;;;10.28;64.62;97016.56;119707;1151;104355;-74
2020/12/29 10:42:32;;;;;;;3.23;1.93;;;;;;;10.22;64.02;97018.02;119631;1151;104389;-74
2020/12/29 10:44:59;;;;;;;7.47;2.37;;;;;;;10.10;64.18;97014.81;119727;1151;104492;-74
2020/12/29 10:47:26;;;;;;;5.30;2.07;;;;;;;10.05;63.74;97011.80;119771;1151;104377;-78
2020/12/29 10:49:53;;;;;;;5.77;2.43;;;;;;;10.04;64.30;97023.42;119750;1151;104498;-72
2020/12/29 10:52:20;;;;;;;7.50;2.40;;;;;;;10.06;63.68;97028.59;119756;1151;104448;-74
2020/12/29 10:54:48;;;;;;;4.20;1.97;;;;;;;9.98;63.95;97037.36;119723;1151;104426;-73
2020/12/29 10:57:15;;;;;;;3.57;2.30;;;;;;;10.06;64.23;97052.49;119697;1153;104390;-76
2020/12/29 10:59:41;;;;;;;5.13;2.23;;;;;;;10.18;64.16;97053.05;119747;1153;104908;-75
2020/12/29 11:02:09;;;;;;;4.83;1.90;;;;;;;10.22;63.59;97049.89;119786;1151;104423;-75
2020/12/29 11:04:36;;;;;;;4.83;2.70;;;;;;;10.25;64.14;97070.84;119674;1151;104467;-75
2020/12/29 11:07:04;;;;;;;3.53;1.97;;;;;;;10.21;63.55;97073.98;119771;1151;104416;-75
2020/12/29 11:09:32;;;;;;;4.67;2.30;;;;;;;10.15;63.71;97094.05;119816;1151;104348;-73
2020/12/29 11:11:59;;;;;;;5.00;2.30;;;;;;;10.08;63.10;97080.55;120074;1151;104467;-73
2020/12/29 11:14:26;;;;;;;3.83;2.13;;;;;;;10.10;63.48;97104.31;119736;1151;104444;-72
2020/12/29 11:16:53;;;;;;;4.37;1.83;;;;;;;10.14;63.59;97095.05;119629;1151;104517;-74
2020/12/29 11:19:21;;;;;;;4.03;1.67;;;;;;;10.19;63.23;97116.63;119797;1151;104474;-73
2020/12/29 11:21:48;;;;;;;7.78;1.82;;;;;;;10.13;62.81;97096.03;119723;1151;104518;-74
2020/12/29 11:24:16;;;;;;;3.97;1.80;;;;;;;10.04;62.81;97108.41;119809;1151;104388;-72
2020/12/29 11:26:46;;;;;;;7.27;2.17;;;;;;;9.98;63.35;97111.72;120016;1151;105969;-74
2020/12/29 11:29:13;;;;;;;4.30;1.90;;;;;;;9.95;62.59;97118.16;119687;1151;104383;-74
2020/12/29 11:31:40;;;;;;;7.12;1.92;;;;;;;9.87;62.80;97106.66;119756;1151;103279;-73
2020/12/29 11:34:07;;;;;;;3.27;1.67;;;;;;;9.78;63.10;97116.39;119805;1151;104329;-74